Terminal Aerodrome Forecast
Issued by NWS La Crosse, WI

Home | Current Version | Previous Version | Text Only | Print | Product List | Glossary On
Versions: 1 2 3 4 5 6 7 8 9 10 11 12 13 14 15 16 17 18 19 20 21 22 23 24 25 26 27 28 29 30 31 32 33 34 35 36 37 38 39 40 41 42 43 44 45 46 47 48 49 50
000
FTUS43 KARX 240530
TAFRST
TAF
KRST 240530Z 2406/2506 27005KT P6SM BKN120
     FM241100 VRB03KT 4SM BR BKN025
     FM241600 25005KT 4SM BR BKN010
     FM241900 25005KT P6SM BKN015
     FM242200 23005KT P6SM BKN060=

USA.gov is the U.S. government's official web portal to all federal, state and local government web resources and services.